Time;durP1;ratioP1;P1;durP2;ratioP2;P2;SDS_P1;SDS_P2;PMS_P1;PMS_P2;Temp;Humidity;BMP_temperature;BMP_pressure;BME280_temperature;BME280_humidity;BME280_pressure;Samples;Min_cycle;Max_cycle;Signal;HPM_P1;HPM_P2
2021/06/21 00:00:14;;;;;;;5.73;5.17;;;;;;;;;;4921793;29;20496;-95
2021/06/21 00:02:43;;;;;;;7.97;5.93;;;;;;;;;;4928792;29;20461;-96
2021/06/21 00:05:13;;;;;;;6.70;5.00;;;;;;;;;;4922352;29;20887;-96
2021/06/21 00:08:00;;;;;;;5.17;4.20;;;;;;;;;;4928374;29;20463;-96
2021/06/21 00:11:06;;;;;;;6.70;4.00;;;;;;;;;;4923492;29;20555;-96
2021/06/21 00:16:47;;;;;;;6.13;4.37;;;;;;;;;;4923382;29;21051;-96
2021/06/21 00:22:15;;;;;;;5.57;4.97;;;;;;;;;;4921689;29;20652;-96
2021/06/21 00:24:41;;;;;;;4.70;4.30;;;;;;;;;;4922462;29;20473;-96
2021/06/21 00:30:12;;;;;;;5.43;4.93;;;;;;;;;;4915432;29;21177;-96
2021/06/21 00:32:41;;;;;;;9.20;4.90;;;;;;;;;;4926620;29;20528;-96
2021/06/21 00:35:09;;;;;;;6.60;5.50;;;;;;;;;;4916237;29;21166;-96
2021/06/21 00:37:35;;;;;;;4.77;4.30;;;;;;;;;;4925968;29;20488;-93
2021/06/21 00:40:27;;;;;;;4.80;4.30;;;;;;;;;;4920061;29;20465;-96
2021/06/21 00:43:12;;;;;;;6.53;5.93;;;;;;;;;;4909474;29;20461;-96
2021/06/21 01:00:24;;;;;;;6.63;5.40;;;;;;;;;;4828090;29;20455;-96
2021/06/21 01:03:34;;;;;;;;;;;;;;;;;;;;;
2021/06/21 01:12:33;;;;;;;6.20;5.13;;;;;;;;;;4879587;29;20464;-96
2021/06/21 01:15:03;;;;;;;6.53;5.17;;;;;;;;;;4925099;29;20456;-95
2021/06/21 01:17:34;;;;;;;8.93;6.67;;;;;;;;;;4922517;29;20565;-95
2021/06/21 01:20:18;;;;;;;6.60;5.40;;;;;;;;;;4927711;29;20491;-96
2021/06/21 01:23:10;;;;;;;12.50;6.33;;;;;;;;;;4922392;29;20528;-95
2021/06/21 01:25:39;;;;;;;7.40;6.30;;;;;;;;;;4927056;29;20491;-94
2021/06/21 01:28:11;;;;;;;7.10;6.37;;;;;;;;;;4912286;29;20471;-95
2021/06/21 01:30:45;;;;;;;7.43;6.57;;;;;;;;;;4927283;29;20480;-94
2021/06/21 01:33:13;;;;;;;6.07;5.47;;;;;;;;;;4920227;29;20464;-95
2021/06/21 01:35:47;;;;;;;6.83;6.13;;;;;;;;;;4927196;29;20464;-96
2021/06/21 01:38:25;;;;;;;6.87;6.17;;;;;;;;;;4924382;29;20488;-96
2021/06/21 01:49:53;;;;;;;6.70;5.80;;;;;;;;;;5044142;23;20554;-96
2021/06/21 01:55:23;;;;;;;7.37;6.20;;;;;;;;;;4922942;29;21129;-96
2021/06/21 01:57:51;;;;;;;8.63;6.80;;;;;;;;;;4960559;29;20455;-95
2021/06/21 02:00:19;;;;;;;7.00;6.37;;;;;;;;;;4946596;29;20595;-96
2021/06/21 02:02:50;;;;;;;7.40;6.60;;;;;;;;;;4947660;29;20479;-96
2021/06/21 02:05:18;;;;;;;7.07;6.37;;;;;;;;;;4949575;29;20474;-95
2021/06/21 02:07:47;;;;;;;7.50;6.77;;;;;;;;;;4958639;29;20433;-94
2021/06/21 02:10:14;;;;;;;7.07;6.37;;;;;;;;;;4963731;29;20455;-95
2021/06/21 02:12:40;;;;;;;9.40;6.40;;;;;;;;;;4953179;29;20511;-95
2021/06/21 02:15:09;;;;;;;6.90;6.20;;;;;;;;;;4953471;29;20459;-94
2021/06/21 02:17:36;;;;;;;7.50;6.10;;;;;;;;;;4965425;29;21419;-96
2021/06/21 02:20:04;;;;;;;6.13;5.53;;;;;;;;;;4947184;29;20474;-95
2021/06/21 02:22:32;;;;;;;9.30;5.57;;;;;;;;;;4963289;29;20455;-96
2021/06/21 02:25:00;;;;;;;7.83;5.13;;;;;;;;;;4953047;29;20467;-95
2021/06/21 02:27:28;;;;;;;5.70;5.20;;;;;;;;;;4957472;29;20482;-95
2021/06/21 02:29:56;;;;;;;6.60;5.90;;;;;;;;;;4943673;29;20496;-93
2021/06/21 02:32:23;;;;;;;8.90;6.33;;;;;;;;;;4945659;29;20448;-94
2021/06/21 02:34:51;;;;;;;6.40;5.80;;;;;;;;;;4947144;29;20463;-95
2021/06/21 02:37:17;;;;;;;8.00;6.20;;;;;;;;;;4960413;29;20513;-94
2021/06/21 02:39:46;;;;;;;6.40;5.07;;;;;;;;;;4942584;29;20898;-94
2021/06/21 02:42:12;;;;;;;8.83;7.30;;;;;;;;;;4945353;29;20463;-95
2021/06/21 02:44:39;;;;;;;8.77;5.60;;;;;;;;;;4955293;29;20470;-95
2021/06/21 02:47:06;;;;;;;7.23;6.53;;;;;;;;;;4949025;28;20490;-94
2021/06/21 02:49:34;;;;;;;7.83;5.87;;;;;;;;;;4955721;29;20482;-94
2021/06/21 02:52:02;;;;;;;6.83;6.10;;;;;;;;;;4946729;29;20459;-94
2021/06/21 02:54:32;;;;;;;8.20;5.77;;;;;;;;;;4961922;29;20487;-94
2021/06/21 02:57:05;;;;;;;8.50;6.37;;;;;;;;;;4946840;29;20515;-94
2021/06/21 02:59:35;;;;;;;6.50;5.90;;;;;;;;;;4950148;29;20454;-95
2021/06/21 03:02:02;;;;;;;21.50;7.43;;;;;;;;;;4952673;29;20458;-95
2021/06/21 03:04:29;;;;;;;9.80;5.67;;;;;;;;;;4958937;29;20471;-95
2021/06/21 03:06:56;;;;;;;6.20;5.60;;;;;;;;;;4963612;29;20489;-95
2021/06/21 03:09:23;;;;;;;7.23;5.73;;;;;;;;;;4966801;29;20459;-92
2021/06/21 03:11:50;;;;;;;8.83;7.17;;;;;;;;;;4961841;29;20455;-94
2021/06/21 03:14:21;;;;;;;7.50;6.00;;;;;;;;;;4955238;29;20514;-92
2021/06/21 03:16:48;;;;;;;15.90;7.57;;;;;;;;;;4946656;29;20463;-94
2021/06/21 03:19:15;;;;;;;6.07;5.47;;;;;;;;;;4956048;29;20466;-94
2021/06/21 03:21:42;;;;;;;10.60;5.80;;;;;;;;;;4949676;29;20494;-95
2021/06/21 03:24:13;;;;;;;7.50;6.80;;;;;;;;;;4959979;29;20452;-94
2021/06/21 03:26:39;;;;;;;6.77;6.07;;;;;;;;;;4944874;29;20491;-96
2021/06/21 03:29:12;;;;;;;6.00;5.47;;;;;;;;;;4949515;29;20458;-94
2021/06/21 03:31:41;;;;;;;6.90;6.23;;;;;;;;;;4958548;29;20458;-94
2021/06/21 03:34:07;;;;;;;8.00;6.80;;;;;;;;;;4947458;29;20551;-93
2021/06/21 03:36:34;;;;;;;8.50;7.37;;;;;;;;;;4952998;29;20451;-93
2021/06/21 03:39:00;;;;;;;7.67;6.70;;;;;;;;;;4945896;29;20464;-93
2021/06/21 03:41:27;;;;;;;9.03;7.27;;;;;;;;;;4959038;29;20460;-94
2021/06/21 03:43:53;;;;;;;10.43;7.67;;;;;;;;;;4956176;29;20465;-95
2021/06/21 03:46:20;;;;;;;9.63;8.00;;;;;;;;;;4969007;29;20495;-95
2021/06/21 03:48:48;;;;;;;10.20;7.03;;;;;;;;;;4954803;29;20455;-92
2021/06/21 03:51:14;;;;;;;12.07;7.77;;;;;;;;;;4970830;29;20478;-94
2021/06/21 03:53:41;;;;;;;9.47;8.37;;;;;;;;;;4961112;29;20522;-95
2021/06/21 03:56:08;;;;;;;9.60;8.27;;;;;;;;;;4963221;29;20482;-95
2021/06/21 03:58:34;;;;;;;11.60;8.70;;;;;;;;;;4943940;29;20475;-94
2021/06/21 04:01:01;;;;;;;9.63;8.63;;;;;;;;;;4947844;29;20515;-94
2021/06/21 04:03:27;;;;;;;10.87;9.30;;;;;;;;;;4949144;29;20464;-95
2021/06/21 04:05:55;;;;;;;10.30;8.10;;;;;;;;;;4946874;29;20464;-95
2021/06/21 04:08:22;;;;;;;10.37;8.63;;;;;;;;;;4943788;29;20532;-96
2021/06/21 04:10:50;;;;;;;9.93;8.43;;;;;;;;;;4954183;29;20459;-94
2021/06/21 04:13:17;;;;;;;9.33;8.03;;;;;;;;;;4946875;28;20491;-94
2021/06/21 04:15:44;;;;;;;8.53;7.63;;;;;;;;;;4954617;29;20450;-95
2021/06/21 04:18:11;;;;;;;7.77;7.07;;;;;;;;;;4955124;29;20531;-95
2021/06/21 04:20:39;;;;;;;10.37;7.87;;;;;;;;;;4956851;28;20474;-96
2021/06/21 04:23:07;;;;;;;9.83;8.00;;;;;;;;;;4957323;29;20451;-96
2021/06/21 04:25:34;;;;;;;10.20;8.70;;;;;;;;;;4944257;29;20497;-95
2021/06/21 04:28:01;;;;;;;9.90;8.57;;;;;;;;;;4951649;29;20491;-96
2021/06/21 04:30:28;;;;;;;9.40;8.27;;;;;;;;;;4950075;29;21062;-96
2021/06/21 04:32:55;;;;;;;10.37;8.07;;;;;;;;;;4964806;29;20459;-95
2021/06/21 04:35:22;;;;;;;9.50;8.50;;;;;;;;;;4953198;29;20481;-96
2021/06/21 04:37:49;;;;;;;7.90;7.10;;;;;;;;;;4956964;29;21888;-96
2021/06/21 04:40:18;;;;;;;12.43;8.20;;;;;;;;;;4981536;23;20455;-96
2021/06/21 04:42:45;;;;;;;9.27;7.47;;;;;;;;;;4948135;29;20463;-96
2021/06/21 04:45:12;;;;;;;9.47;8.50;;;;;;;;;;4953877;29;20478;-96
2021/06/21 04:47:39;;;;;;;9.37;8.37;;;;;;;;;;4957689;29;20500;-96
2021/06/21 04:50:12;;;;;;;9.40;7.90;;;;;;;;;;4945988;29;20560;-96
2021/06/21 04:52:42;;;;;;;9.00;7.53;;;;;;;;;;4954609;29;20451;-96
2021/06/21 04:55:10;;;;;;;12.57;8.60;;;;;;;;;;4945652;29;20482;-96
2021/06/21 04:57:39;;;;;;;11.20;8.60;;;;;;;;;;4950439;29;20456;-96
2021/06/21 05:00:07;;;;;;;8.20;7.30;;;;;;;;;;4964841;29;20487;-96
2021/06/21 05:02:33;;;;;;;9.13;8.10;;;;;;;;;;4953807;29;20454;-96
2021/06/21 05:05:00;;;;;;;10.07;8.83;;;;;;;;;;4956829;29;20440;-95
2021/06/21 05:22:49;;;;;;;9.73;7.83;;;;;;;;;;5078968;23;20530;-96
2021/06/21 05:25:58;;;;;;;9.13;8.17;;;;;;;;;;4965023;29;20436;-96
2021/06/21 05:28:52;;;;;;;8.63;7.70;;;;;;;;;;4959037;28;20977;-96
2021/06/21 05:33:56;;;;;;;9.23;7.70;;;;;;;;;;5206070;23;20496;-94
2021/06/21 05:36:23;;;;;;;9.30;8.17;;;;;;;;;;4960994;29;20533;-94
2021/06/21 05:38:49;;;;;;;9.70;8.70;;;;;;;;;;4958021;29;20484;-96
2021/06/21 05:41:43;;;;;;;9.93;8.07;;;;;;;;;;4964842;29;20467;-96
2021/06/21 05:44:37;;;;;;;8.90;8.00;;;;;;;;;;4939800;29;20474;-96
2021/06/21 05:47:21;;;;;;;9.03;7.90;;;;;;;;;;4896057;29;20489;-96
2021/06/21 05:50:26;;;;;;;9.40;8.43;;;;;;;;;;5006161;23;20527;-96
2021/06/21 05:55:20;;;;;;;9.23;8.23;;;;;;;;;;5113828;23;20504;-96
2021/06/21 06:00:31;;;;;;;10.73;8.07;;;;;;;;;;4951184;23;20527;-96
2021/06/21 06:05:33;;;;;;;7.93;7.13;;;;;;;;;;5526042;23;20541;-96
2021/06/21 06:10:54;;;;;;;9.17;7.03;;;;;;;;;;5173583;23;20484;-96
2021/06/21 06:40:12;;;;;;;8.17;6.40;;;;;;;;;;5720400;23;21463;-94
2021/06/21 06:42:40;;;;;;;6.40;5.80;;;;;;;;;;5005012;23;20463;-95
2021/06/21 08:28:49;;;;;;;5.83;5.17;;;;;;;;;;5270760;23;20520;-96
2021/06/21 09:31:01;;;;;;;5.57;5.07;;;;;;;;;;5304642;23;20491;-96
2021/06/21 09:36:39;;;;;;;6.03;5.23;;;;;;;;;;4951544;29;20514;-96
2021/06/21 09:47:29;;;;;;;5.03;4.30;;;;;;;;;;5175497;23;20487;-96
2021/06/21 09:50:19;;;;;;;4.87;4.57;;;;;;;;;;4964229;28;20565;-96
2021/06/21 09:55:48;;;;;;;5.40;4.90;;;;;;;;;;5001187;23;20478;31
2021/06/21 10:06:48;;;;;;;5.03;4.63;;;;;;;;;;5100260;23;20498;-96
2021/06/21 10:09:15;;;;;;;4.73;4.40;;;;;;;;;;5188537;23;20450;-96
2021/06/21 10:11:45;;;;;;;4.60;4.30;;;;;;;;;;4920663;29;20496;-95
2021/06/21 10:14:16;;;;;;;4.40;3.80;;;;;;;;;;4917970;29;21023;-95
2021/06/21 10:16:48;;;;;;;7.13;4.23;;;;;;;;;;4929688;29;20472;-95
2021/06/21 10:19:21;;;;;;;4.53;4.23;;;;;;;;;;4938324;29;20445;-96
2021/06/21 10:22:09;;;;;;;4.30;4.00;;;;;;;;;;4923971;29;20436;-96
2021/06/21 10:24:40;;;;;;;8.53;4.20;;;;;;;;;;4939691;29;20443;-96
2021/06/21 10:27:27;;;;;;;4.77;4.47;;;;;;;;;;4933484;29;20487;-96
2021/06/21 10:32:28;;;;;;;4.80;4.40;;;;;;;;;;4950950;29;20672;-96
2021/06/21 10:46:19;;;;;;;5.10;4.70;;;;;;;;;;4895555;27;20483;-96
2021/06/21 11:34:12;;;;;;;6.53;5.93;;;;;;;;;;5046552;23;20491;-96
2021/06/21 11:39:28;;;;;;;5.80;5.23;;;;;;;;;;5533087;23;20498;-96
2021/06/21 12:00:33;;;;;;;6.20;5.70;;;;;;;;;;4040677;23;20482;-95
2021/06/21 12:06:00;;;;;;;5.77;5.13;;;;;;;;;;5847687;23;20490;-96
2021/06/21 12:25:45;;;;;;;5.87;5.37;;;;;;;;;;5147269;23;20493;-93
2021/06/21 12:33:53;;;;;;;5.37;4.93;;;;;;;;;;5287062;23;20491;-96
2021/06/21 12:39:22;;;;;;;8.67;5.50;;;;;;;;;;5187738;23;20573;-95
2021/06/21 13:01:35;;;;;;;6.20;5.80;;;;;;;;;;3798779;23;20488;-96
2021/06/21 14:01:17;;;;;;;6.57;5.90;;;;;;;;;;4848342;23;20479;-96
2021/06/21 14:27:57;;;;;;;6.10;5.70;;;;;;;;;;5449954;23;20461;31
2021/06/21 15:04:18;;;;;;;6.60;6.20;;;;;;;;;;2940604;23;20476;-96
2021/06/21 15:09:39;;;;;;;6.87;6.27;;;;;;;;;;4956234;29;20487;-96
2021/06/21 15:14:44;;;;;;;7.60;6.60;;;;;;;;;;4999716;23;20471;-96
2021/06/21 16:13:47;;;;;;;13.40;6.80;;;;;;;;;;5931639;23;21204;-96
2021/06/21 16:19:21;;;;;;;7.27;6.60;;;;;;;;;;2033227;23;20762;31
2021/06/21 16:21:53;;;;;;;7.87;7.00;;;;;;;;;;4932635;29;20467;-96
2021/06/21 16:24:30;;;;;;;7.63;7.00;;;;;;;;;;4922373;29;20419;-96
2021/06/21 19:25:46;;;;;;;10.00;9.10;;;;;;;;;;5209570;23;20485;-96
2021/06/21 19:28:21;;;;;;;16.10;8.70;;;;;;;;;;4920161;29;20469;-96
2021/06/21 19:49:15;;;;;;;9.53;8.63;;;;;;;;;;5272649;23;20482;-96
2021/06/21 19:51:42;;;;;;;10.47;9.30;;;;;;;;;;4950760;29;20470;-96
2021/06/21 19:54:09;;;;;;;9.10;8.40;;;;;;;;;;4959593;29;20524;-96
2021/06/21 19:56:35;;;;;;;10.30;9.30;;;;;;;;;;4951907;29;20521;-96
2021/06/21 19:59:03;;;;;;;10.03;9.13;;;;;;;;;;4950104;29;20524;-96
2021/06/21 20:01:30;;;;;;;11.83;10.60;;;;;;;;;;4945903;29;20460;-96
2021/06/21 20:03:56;;;;;;;11.47;10.40;;;;;;;;;;4947162;29;20459;-94
2021/06/21 20:06:24;;;;;;;13.23;11.13;;;;;;;;;;4944444;29;20464;-94
2021/06/21 20:08:51;;;;;;;13.03;11.77;;;;;;;;;;4947044;29;20495;-94
2021/06/21 20:11:18;;;;;;;13.27;12.13;;;;;;;;;;4943961;29;20492;-95
2021/06/21 20:13:45;;;;;;;16.47;14.40;;;;;;;;;;4949168;29;20455;-96
2021/06/21 20:19:03;;;;;;;15.47;11.80;;;;;;;;;;4953916;29;20447;-96
2021/06/21 20:24:26;;;;;;;13.07;11.67;;;;;;;;;;4923251;23;20500;-96
2021/06/21 20:27:04;;;;;;;12.43;11.10;;;;;;;;;;4909464;29;20488;-96
2021/06/21 20:37:46;;;;;;;11.27;10.30;;;;;;;;;;5310834;23;20511;-96
2021/06/21 20:40:14;;;;;;;11.10;10.10;;;;;;;;;;5697213;23;20504;-96
2021/06/21 20:42:42;;;;;;;12.13;10.67;;;;;;;;;;4917649;29;20471;-94
2021/06/21 20:45:09;;;;;;;11.17;10.27;;;;;;;;;;4927173;29;20843;-94
2021/06/21 20:47:36;;;;;;;9.87;9.03;;;;;;;;;;4928895;29;20472;-95
2021/06/21 20:50:02;;;;;;;11.73;10.20;;;;;;;;;;4931627;29;21176;-94
2021/06/21 20:52:29;;;;;;;10.83;9.73;;;;;;;;;;4930014;29;20515;-94
2021/06/21 20:54:57;;;;;;;11.20;10.10;;;;;;;;;;4927268;29;20480;-93
2021/06/21 20:57:25;;;;;;;11.67;10.53;;;;;;;;;;4916491;29;20464;-94
2021/06/21 20:59:51;;;;;;;11.23;10.13;;;;;;;;;;4927751;29;20512;-94
2021/06/21 21:02:18;;;;;;;13.23;10.70;;;;;;;;;;4926957;29;21112;-93
2021/06/21 21:04:44;;;;;;;16.60;10.90;;;;;;;;;;4923988;29;20531;-94
2021/06/21 21:07:11;;;;;;;12.37;11.20;;;;;;;;;;4926349;29;20452;-94
2021/06/21 21:09:37;;;;;;;12.57;11.57;;;;;;;;;;4930545;29;20487;-96
2021/06/21 21:12:04;;;;;;;12.17;11.07;;;;;;;;;;4927378;29;20465;-95
2021/06/21 21:14:32;;;;;;;14.07;11.80;;;;;;;;;;4924222;29;20469;-95
2021/06/21 21:16:59;;;;;;;12.77;11.50;;;;;;;;;;4926687;29;20471;-96
2021/06/21 21:19:25;;;;;;;16.60;11.23;;;;;;;;;;4924014;29;20464;-96
2021/06/21 21:21:52;;;;;;;11.57;10.47;;;;;;;;;;4928036;29;20481;-94
2021/06/21 21:24:19;;;;;;;11.27;10.07;;;;;;;;;;4926237;29;20536;-95
2021/06/21 21:26:46;;;;;;;12.27;11.20;;;;;;;;;;4927341;29;20465;-95
2021/06/21 21:29:13;;;;;;;11.53;10.50;;;;;;;;;;4926705;29;20882;-95
2021/06/21 21:31:41;;;;;;;12.53;11.33;;;;;;;;;;4927815;29;20464;-95
2021/06/21 21:34:09;;;;;;;16.17;11.90;;;;;;;;;;4926741;29;20468;-95
2021/06/21 21:36:35;;;;;;;14.13;11.10;;;;;;;;;;4926181;29;20452;-95
2021/06/21 21:39:02;;;;;;;13.13;11.50;;;;;;;;;;4922356;29;20452;-95
2021/06/21 21:41:29;;;;;;;13.70;11.50;;;;;;;;;;4928969;29;20483;-95
2021/06/21 21:43:55;;;;;;;13.17;11.73;;;;;;;;;;4931630;29;20456;-95
2021/06/21 21:46:22;;;;;;;12.50;11.30;;;;;;;;;;4937576;29;20463;-95
2021/06/21 21:48:50;;;;;;;15.57;13.27;;;;;;;;;;4937117;28;20488;-94
2021/06/21 21:51:16;;;;;;;14.23;12.87;;;;;;;;;;4932269;29;20467;-95
2021/06/21 21:53:44;;;;;;;18.63;13.07;;;;;;;;;;4931144;29;20476;-96
2021/06/21 21:56:10;;;;;;;15.77;14.07;;;;;;;;;;4923714;29;20476;-95
2021/06/21 21:58:37;;;;;;;15.40;13.90;;;;;;;;;;4923513;29;20475;-96
2021/06/21 22:01:04;;;;;;;13.80;12.40;;;;;;;;;;4920690;29;20464;-95
2021/06/21 22:03:31;;;;;;;14.07;12.67;;;;;;;;;;4924301;29;20520;-94
2021/06/21 22:05:58;;;;;;;16.53;13.33;;;;;;;;;;4922741;29;20473;-94
2021/06/21 22:08:25;;;;;;;15.37;13.80;;;;;;;;;;4924575;29;20460;-95
2021/06/21 22:10:52;;;;;;;16.70;13.57;;;;;;;;;;4922385;29;20640;-95
2021/06/21 22:13:18;;;;;;;17.60;14.60;;;;;;;;;;4926084;29;20456;-94
2021/06/21 22:15:45;;;;;;;14.03;12.77;;;;;;;;;;4924933;29;20547;-95
2021/06/21 22:18:12;;;;;;;14.20;12.70;;;;;;;;;;4927911;29;20463;-95
2021/06/21 22:20:40;;;;;;;13.33;12.00;;;;;;;;;;4925363;29;20468;-95
2021/06/21 22:23:10;;;;;;;14.03;12.73;;;;;;;;;;4914521;29;20480;-95
2021/06/21 22:25:37;;;;;;;14.83;13.50;;;;;;;;;;4927627;29;20463;-94
2021/06/21 22:28:03;;;;;;;15.10;13.50;;;;;;;;;;4925710;29;20965;-94
2021/06/21 22:30:30;;;;;;;15.13;13.70;;;;;;;;;;4927525;29;21048;-96
2021/06/21 22:32:57;;;;;;;15.30;12.53;;;;;;;;;;4925021;29;20464;-95
2021/06/21 22:35:23;;;;;;;15.80;14.27;;;;;;;;;;4927938;29;20452;-95
2021/06/21 22:37:50;;;;;;;14.37;13.07;;;;;;;;;;4925427;29;20475;-95
2021/06/21 22:40:18;;;;;;;15.10;13.60;;;;;;;;;;4926841;29;20460;-94
2021/06/21 22:42:45;;;;;;;17.40;13.30;;;;;;;;;;4924220;29;20467;-96
2021/06/21 22:45:12;;;;;;;14.70;13.30;;;;;;;;;;4927233;29;20504;-95
2021/06/21 22:47:39;;;;;;;12.70;11.60;;;;;;;;;;4924900;29;20499;-96
2021/06/21 22:50:06;;;;;;;12.63;11.43;;;;;;;;;;4928379;29;20496;-96
2021/06/21 22:52:32;;;;;;;12.70;11.53;;;;;;;;;;4925464;29;20464;-96
2021/06/21 22:54:59;;;;;;;13.40;12.20;;;;;;;;;;4927234;29;20864;-95
2021/06/21 22:57:27;;;;;;;12.67;11.47;;;;;;;;;;4923647;29;20468;-95
2021/06/21 22:59:53;;;;;;;15.00;13.60;;;;;;;;;;4926290;29;20460;-94
2021/06/21 23:02:20;;;;;;;13.77;12.43;;;;;;;;;;4923360;29;20455;-95
2021/06/21 23:04:46;;;;;;;12.50;11.40;;;;;;;;;;4927324;29;20456;-95
2021/06/21 23:07:13;;;;;;;13.97;12.77;;;;;;;;;;4927682;29;20456;-95
2021/06/21 23:09:40;;;;;;;13.27;12.07;;;;;;;;;;4926906;29;20531;-94
2021/06/21 23:12:06;;;;;;;14.10;12.70;;;;;;;;;;4929093;29;20996;-95
2021/06/21 23:14:34;;;;;;;14.53;13.03;;;;;;;;;;4926648;29;20456;-96
2021/06/21 23:17:01;;;;;;;13.73;12.43;;;;;;;;;;4927243;29;20488;-96
2021/06/21 23:19:28;;;;;;;14.33;13.13;;;;;;;;;;4925569;29;20480;-96
2021/06/21 23:21:54;;;;;;;19.93;14.10;;;;;;;;;;4928302;29;20464;-95
2021/06/21 23:24:21;;;;;;;16.00;13.60;;;;;;;;;;4925822;29;20468;-96
2021/06/21 23:26:47;;;;;;;13.60;12.27;;;;;;;;;;4929322;29;20468;-96
2021/06/21 23:29:15;;;;;;;12.33;11.17;;;;;;;;;;4927564;29;20496;-96
2021/06/21 23:31:43;;;;;;;13.10;11.90;;;;;;;;;;4928952;29;20456;-94
2021/06/21 23:34:10;;;;;;;13.60;12.27;;;;;;;;;;4932316;29;20460;-95
2021/06/21 23:36:36;;;;;;;13.90;12.60;;;;;;;;;;4932498;29;20467;-96
2021/06/21 23:39:05;;;;;;;13.40;12.10;;;;;;;;;;4926655;29;20479;-96
2021/06/21 23:41:32;;;;;;;13.90;12.70;;;;;;;;;;4928630;29;20829;-96
2021/06/21 23:43:58;;;;;;;13.50;12.23;;;;;;;;;;4927311;29;20475;-94
2021/06/21 23:46:25;;;;;;;13.63;12.43;;;;;;;;;;4928350;29;20468;-96
2021/06/21 23:48:55;;;;;;;12.43;11.20;;;;;;;;;;4927449;29;20452;-96
2021/06/21 23:51:22;;;;;;;14.17;12.40;;;;;;;;;;4928178;29;20460;-96
2021/06/21 23:53:48;;;;;;;13.07;11.77;;;;;;;;;;4927610;29;20522;-95
2021/06/21 23:56:15;;;;;;;13.17;11.87;;;;;;;;;;4925400;29;20475;-96
2021/06/21 23:58:41;;;;;;;15.57;11.33;;;;;;;;;;4927415;29;20827;-96
